Terminal Aerodrome Forecast
Issued by NWS Wilmington, NC

Home | Current Version | Previous Version | Text Only | Print | Product List | Glossary On
Versions: 1 2 3 4 5 6 7 8 9 10 11 12 13 14 15
000
FTUS42 KILM 240000 CCA
TAFMYR
TAF COR
KMYR 240022Z 2400/2424 01014G20KT 6SM -RA SCT010 SCT030 OVC050
     FM240800 03013KT 5SM -RA BR SCT008 OVC018
     FM241400 04013KT P6SM -RA BKN006 OVC012
     FM241900 04006KT P6SM VCSH BKN010 OVC020
      AMD LTD TO CLD VIS AND WIND 2404/2411=

USA.gov is the U.S. government's official web portal to all federal, state and local government web resources and services.